Time;durP1;ratioP1;P1;durP2;ratioP2;P2;SDS_P1;SDS_P2;PMS_P1;PMS_P2;Temp;Humidity;BMP_temperature;BMP_pressure;BME280_temperature;BME280_humidity;BME280_pressure;Samples;Min_cycle;Max_cycle;Signal;HPM_P1;HPM_P2
2023/08/29 00:01:44;;;;;;;11.07;9.98;;;13.00;88.50;;;;;;5054922;28;20036;-81
2023/08/29 00:04:10;;;;;;;10.85;9.43;;;12.90;88.80;;;;;;5053254;28;20070;-80
2023/08/29 00:06:36;;;;;;;9.32;8.45;;;13.00;88.80;;;;;;5054673;28;20033;-79
2023/08/29 00:09:03;;;;;;;10.85;9.75;;;12.90;88.70;;;;;;5054682;28;20021;-79
2023/08/29 00:11:29;;;;;;;11.13;10.13;;;13.00;88.80;;;;;;5054875;28;20028;-80
2023/08/29 00:13:55;;;;;;;10.23;9.32;;;13.00;88.60;;;;;;5054750;28;20033;-79
2023/08/29 00:16:20;;;;;;;12.10;10.95;;;13.00;88.20;;;;;;5054646;28;20021;-80
2023/08/29 00:18:46;;;;;;;9.82;8.93;;;13.10;88.00;;;;;;5054973;28;20035;-78
2023/08/29 00:21:11;;;;;;;10.25;9.02;;;13.10;87.80;;;;;;5053336;28;20042;-79
2023/08/29 00:23:37;;;;;;;10.40;9.40;;;13.10;87.90;;;;;;5054626;28;20394;-78
2023/08/29 00:26:03;;;;;;;13.07;11.75;;;13.10;87.50;;;;;;5054557;28;20060;-79
2023/08/29 00:28:28;;;;;;;10.75;9.80;;;13.20;87.50;;;;;;5053099;28;20045;-78
2023/08/29 00:30:54;;;;;;;12.55;11.27;;;13.20;87.40;;;;;;5054413;28;20082;-79
2023/08/29 00:33:20;;;;;;;12.68;11.38;;;13.10;87.50;;;;;;5053513;28;20471;-80
2023/08/29 00:35:47;;;;;;;12.63;11.38;;;13.10;87.50;;;;;;5054255;28;20028;-80
2023/08/29 00:38:12;;;;;;;13.38;12.18;;;13.10;87.70;;;;;;5054417;28;20025;-80
2023/08/29 00:40:38;;;;;;;11.70;10.57;;;13.10;87.70;;;;;;5054273;28;20028;-81
2023/08/29 00:43:03;;;;;;;13.35;12.07;;;13.00;87.70;;;;;;5067877;28;20378;-80
2023/08/29 00:45:32;;;;;;;12.98;11.82;;;13.10;87.90;;;;;;5074019;28;20470;-80
2023/08/29 00:48:00;;;;;;;13.23;11.93;;;13.10;87.60;;;;;;5073798;28;20490;-80
2023/08/29 00:50:26;;;;;;;14.82;13.40;;;13.10;87.30;;;;;;5074112;28;20561;-80
2023/08/29 00:52:56;;;;;;;12.52;11.25;;;13.10;87.30;;;;;;5073801;28;20104;-80
2023/08/29 00:55:23;;;;;;;15.45;13.80;;;13.10;87.70;;;;;;5074007;28;20021;-80
2023/08/29 00:57:55;;;;;;;14.00;12.60;;;13.10;88.00;;;;;;5073919;28;20033;-80
2023/08/29 01:00:25;;;;;;;13.43;11.63;;;13.10;88.10;;;;;;5074123;28;20071;-80
2023/08/29 01:02:50;;;;;;;11.40;10.35;;;13.10;88.00;;;;;;5073682;28;20461;-80
2023/08/29 01:05:16;;;;;;;13.27;11.77;;;13.20;87.80;;;;;;5073722;28;20024;-80
2023/08/29 01:07:42;;;;;;;13.82;12.43;;;13.20;87.70;;;;;;5073506;28;20482;-80
2023/08/29 01:10:08;;;;;;;12.23;11.00;;;13.30;87.50;;;;;;5072564;28;20060;-80
2023/08/29 01:13:00;;;;;;;12.13;10.90;;;13.30;86.90;;;;;;5073690;28;20056;-80
2023/08/29 01:15:29;;;;;;;12.57;10.77;;;13.30;86.80;;;;;;5073541;28;20032;-80
2023/08/29 01:18:00;;;;;;;15.00;13.35;;;13.30;86.60;;;;;;5073533;28;20024;-81
2023/08/29 01:20:29;;;;;;;13.50;12.23;;;13.20;86.10;;;;;;5073684;28;20020;-79
2023/08/29 01:23:02;;;;;;;15.57;14.10;;;13.20;86.80;;;;;;5073439;28;20025;-80
2023/08/29 01:25:43;;;;;;;15.25;13.60;;;13.10;88.10;;;;;;5073355;28;20020;-80
2023/08/29 01:28:09;;;;;;;14.25;12.80;;;13.10;87.70;;;;;;5073308;28;20072;-80
2023/08/29 01:30:37;;;;;;;14.13;12.82;;;13.10;87.60;;;;;;5073468;28;20027;-80
2023/08/29 01:33:03;;;;;;;13.80;12.35;;;13.10;87.60;;;;;;5072125;28;20056;-80
2023/08/29 01:35:28;;;;;;;16.08;14.52;;;13.20;88.40;;;;;;5073116;28;20023;-78
2023/08/29 01:37:54;;;;;;;17.48;14.20;;;13.10;88.50;;;;;;5072973;28;20028;-81
2023/08/29 01:40:20;;;;;;;14.80;13.32;;;12.90;88.30;;;;;;5073259;28;20048;-81
2023/08/29 01:42:45;;;;;;;15.07;13.00;;;12.90;88.30;;;;;;5073116;28;20060;-78
2023/08/29 01:45:11;;;;;;;13.85;12.45;;;12.90;88.70;;;;;;5073099;28;20016;-78
2023/08/29 01:47:36;;;;;;;13.63;12.32;;;12.90;88.40;;;;;;5073287;28;20513;-76
2023/08/29 01:50:04;;;;;;;14.15;12.75;;;13.00;88.50;;;;;;5071921;28;20050;-77
2023/08/29 01:52:30;;;;;;;13.95;12.55;;;13.10;88.60;;;;;;5071892;28;20082;-78
2023/08/29 01:54:57;;;;;;;11.98;10.75;;;13.10;88.80;;;;;;5073035;28;20498;-79
2023/08/29 01:57:26;;;;;;;14.00;12.65;;;13.10;88.90;;;;;;5072994;28;20107;-78
2023/08/29 01:59:52;;;;;;;11.95;10.82;;;13.20;88.80;;;;;;5072789;28;20104;-78
2023/08/29 02:02:19;;;;;;;12.90;11.70;;;13.20;88.80;;;;;;5072818;28;20111;-79
2023/08/29 02:04:44;;;;;;;11.50;10.50;;;13.30;89.00;;;;;;5072846;28;20028;-78
2023/08/29 02:07:10;;;;;;;11.88;10.88;;;13.30;88.80;;;;;;5072660;28;20504;-79
2023/08/29 02:09:35;;;;;;;11.85;10.68;;;13.30;88.70;;;;;;5072807;28;20036;-78
2023/08/29 02:12:01;;;;;;;12.25;11.15;;;13.40;88.50;;;;;;5072613;28;20107;-79
2023/08/29 02:14:26;;;;;;;17.20;13.82;;;13.40;88.50;;;;;;5072671;28;20020;-79
2023/08/29 02:16:52;;;;;;;13.43;12.05;;;13.40;88.20;;;;;;5072819;28;20028;-79
2023/08/29 02:19:19;;;;;;;11.88;10.77;;;13.30;88.00;;;;;;5072714;28;20120;-78
2023/08/29 02:21:45;;;;;;;12.85;11.55;;;13.30;88.10;;;;;;5072696;28;20016;-78
2023/08/29 02:24:10;;;;;;;12.63;11.43;;;13.40;88.10;;;;;;5072663;28;20055;-79
2023/08/29 02:26:36;;;;;;;13.45;12.23;;;13.40;88.20;;;;;;5072616;28;20112;-79
2023/08/29 02:29:01;;;;;;;12.98;11.75;;;13.30;88.30;;;;;;5072638;28;20044;-77
2023/08/29 02:31:27;;;;;;;13.95;11.98;;;13.40;88.40;;;;;;5072589;28;20208;-76
2023/08/29 02:33:53;;;;;;;13.30;12.00;;;13.40;88.20;;;;;;5072523;28;20033;-78
2023/08/29 02:36:19;;;;;;;12.90;11.60;;;13.30;87.70;;;;;;5071335;28;20478;-76
2023/08/29 02:38:45;;;;;;;13.38;11.25;;;13.30;87.40;;;;;;5071222;28;20021;-76
2023/08/29 02:41:11;;;;;;;13.07;11.77;;;13.30;87.20;;;;;;5072331;28;20032;-76
2023/08/29 02:43:37;;;;;;;13.40;11.80;;;13.20;87.20;;;;;;5072397;28;20064;-75
2023/08/29 02:46:03;;;;;;;16.63;12.52;;;13.30;87.10;;;;;;5072219;28;20032;-75
2023/08/29 02:48:29;;;;;;;13.13;11.73;;;13.20;87.00;;;;;;5072340;28;20031;-75
2023/08/29 02:50:55;;;;;;;11.70;10.63;;;13.20;87.10;;;;;;5072263;28;20078;-75
2023/08/29 02:53:21;;;;;;;12.50;11.20;;;13.20;87.20;;;;;;5072381;28;20367;-76
2023/08/29 02:55:50;;;;;;;14.32;12.90;;;13.20;87.30;;;;;;5072336;28;20094;-75
2023/08/29 02:58:15;;;;;;;14.15;12.73;;;13.10;87.40;;;;;;5075213;28;20043;-74
2023/08/29 03:00:41;;;;;;;14.00;12.60;;;13.00;87.30;;;;;;5076029;28;20470;-75
2023/08/29 03:03:07;;;;;;;13.70;12.23;;;13.10;87.40;;;;;;5076041;28;20103;-76
2023/08/29 03:05:32;;;;;;;12.10;11.02;;;13.10;87.40;;;;;;5074064;28;20111;-76
2023/08/29 03:08:03;;;;;;;13.23;12.00;;;13.00;87.50;;;;;;5056131;28;20143;-75
2023/08/29 03:10:31;;;;;;;12.45;11.25;;;13.00;87.70;;;;;;5055856;28;20096;-75
2023/08/29 03:12:56;;;;;;;14.57;12.85;;;13.10;88.00;;;;;;5058348;28;20029;-76
2023/08/29 03:15:22;;;;;;;12.52;11.27;;;13.00;87.80;;;;;;5059016;28;20573;-75
2023/08/29 03:17:48;;;;;;;12.55;11.25;;;13.00;87.50;;;;;;5055879;28;20033;-76
2023/08/29 03:20:15;;;;;;;13.93;12.60;;;13.10;87.60;;;;;;5055719;28;20021;-75
2023/08/29 03:22:41;;;;;;;13.18;11.25;;;13.00;87.70;;;;;;5055655;28;20025;-76
2023/08/29 03:25:07;;;;;;;15.98;13.32;;;13.10;87.80;;;;;;5055606;28;20068;-75
2023/08/29 03:27:32;;;;;;;13.25;11.95;;;12.90;88.00;;;;;;5055816;28;20037;-77
2023/08/29 03:29:58;;;;;;;13.30;12.00;;;13.00;88.00;;;;;;5056033;28;20379;-76
2023/08/29 03:32:24;;;;;;;11.80;10.70;;;12.90;87.80;;;;;;5055599;28;20483;-76
2023/08/29 03:34:54;;;;;;;12.23;11.10;;;12.90;88.00;;;;;;5055559;28;20039;-76
2023/08/29 03:37:20;;;;;;;13.70;12.40;;;12.90;87.90;;;;;;5055391;28;20013;-77
2023/08/29 03:39:45;;;;;;;13.40;11.35;;;12.90;87.60;;;;;;5055460;28;20025;-76
2023/08/29 03:42:11;;;;;;;12.40;11.27;;;12.90;87.70;;;;;;5055394;28;20411;-75
2023/08/29 03:44:36;;;;;;;13.35;11.98;;;12.80;88.00;;;;;;5055165;28;20381;-76
2023/08/29 03:47:03;;;;;;;12.43;11.20;;;12.80;88.00;;;;;;5055188;28;20501;-78
2023/08/29 03:49:29;;;;;;;13.52;12.10;;;12.80;88.00;;;;;;5055083;28;20025;-76
2023/08/29 03:51:55;;;;;;;13.70;12.25;;;12.80;88.00;;;;;;5053747;28;20054;-76
2023/08/29 03:54:21;;;;;;;14.93;13.25;;;12.80;88.10;;;;;;5053831;28;20056;-76
2023/08/29 03:56:48;;;;;;;13.65;12.25;;;12.70;89.00;;;;;;5055044;28;20102;-77
2023/08/29 03:59:13;;;;;;;13.38;12.07;;;12.70;89.50;;;;;;5055134;28;20021;-78
2023/08/29 04:01:39;;;;;;;12.27;11.07;;;12.70;89.10;;;;;;5053700;28;20167;-77
2023/08/29 04:04:04;;;;;;;12.38;11.20;;;12.80;89.00;;;;;;5054867;28;20047;-77
2023/08/29 04:06:34;;;;;;;11.98;10.88;;;12.80;89.70;;;;;;5054868;28;20486;-77
2023/08/29 04:08:59;;;;;;;11.15;10.05;;;12.80;88.70;;;;;;5053804;28;20047;-78
2023/08/29 04:11:25;;;;;;;11.88;10.77;;;12.90;88.80;;;;;;5054667;28;20493;-78
2023/08/29 04:13:51;;;;;;;12.27;11.05;;;12.90;88.70;;;;;;5054752;28;20036;-77
2023/08/29 04:16:17;;;;;;;12.90;11.63;;;12.90;88.50;;;;;;5054631;28;20032;-78
2023/08/29 04:18:42;;;;;;;12.18;10.90;;;12.90;88.70;;;;;;5054666;28;20028;-78
2023/08/29 04:21:08;;;;;;;12.23;11.02;;;13.00;88.50;;;;;;5054580;28;20333;-77
2023/08/29 04:23:34;;;;;;;12.88;11.70;;;12.90;88.40;;;;;;5054561;28;20040;-77
2023/08/29 04:26:00;;;;;;;12.90;11.60;;;12.90;88.40;;;;;;5052840;28;20036;-77
2023/08/29 04:28:25;;;;;;;12.25;11.10;;;12.90;88.40;;;;;;5054231;28;20131;-78
2023/08/29 04:30:51;;;;;;;12.65;11.43;;;12.90;88.50;;;;;;5054602;28;20105;-78
2023/08/29 04:33:17;;;;;;;12.43;11.15;;;12.90;89.00;;;;;;5054654;28;20032;-77
2023/08/29 04:35:42;;;;;;;15.75;14.13;;;12.90;88.60;;;;;;5054481;28;20546;-77
2023/08/29 04:38:08;;;;;;;12.68;11.40;;;12.90;88.90;;;;;;5054379;28;20517;-78
2023/08/29 04:40:35;;;;;;;12.13;11.02;;;12.80;89.50;;;;;;5054081;28;20111;-78
2023/08/29 04:43:01;;;;;;;12.63;11.32;;;12.80;89.20;;;;;;5054246;28;20322;-78
2023/08/29 04:45:26;;;;;;;13.00;11.60;;;12.80;89.20;;;;;;5053799;28;20179;-78
2023/08/29 04:47:52;;;;;;;11.10;10.02;;;12.80;89.20;;;;;;5053906;28;20536;-77
2023/08/29 04:50:17;;;;;;;11.63;10.43;;;12.90;89.70;;;;;;5054081;28;20027;-78
2023/08/29 04:52:43;;;;;;;12.55;11.25;;;12.90;89.80;;;;;;5054116;28;20541;-77
2023/08/29 04:55:09;;;;;;;12.32;11.13;;;13.00;89.50;;;;;;5052729;28;20115;-78
2023/08/29 04:57:34;;;;;;;10.70;9.70;;;13.00;89.20;;;;;;5054214;28;20021;-78
2023/08/29 05:00:00;;;;;;;16.15;14.43;;;13.00;89.10;;;;;;5053888;28;20021;-77
2023/08/29 05:02:26;;;;;;;14.20;12.73;;;13.00;89.80;;;;;;5053725;28;20064;-77
2023/08/29 05:04:52;;;;;;;14.55;13.15;;;12.90;90.40;;;;;;5053847;28;20017;-77
2023/08/29 05:07:18;;;;;;;16.63;14.93;;;12.80;90.30;;;;;;5053649;28;20082;-76
2023/08/29 05:09:44;;;;;;;15.80;14.30;;;12.70;90.70;;;;;;5053699;28;20025;-76
2023/08/29 05:12:10;;;;;;;17.92;16.23;;;12.70;91.10;;;;;;5053551;28;20501;-75
2023/08/29 05:14:38;;;;;;;18.65;16.60;;;12.60;91.10;;;;;;5053757;28;20429;-75
2023/08/29 05:17:03;;;;;;;18.60;16.70;;;12.40;91.90;;;;;;5053748;28;20021;-76
2023/08/29 05:19:29;;;;;;;13.95;12.65;;;12.30;91.80;;;;;;5053375;28;20178;-75
2023/08/29 05:21:54;;;;;;;9.25;8.38;;;12.40;91.70;;;;;;5053472;28;20497;-76
2023/08/29 05:24:20;;;;;;;8.48;7.68;;;12.30;88.80;;;;;;5053345;28;20406;-79
2023/08/29 05:26:47;;;;;;;8.50;7.15;;;12.30;88.40;;;;;;5053712;28;20029;-78
2023/08/29 05:29:12;;;;;;;7.57;6.80;;;12.40;89.00;;;;;;5053425;28;20037;-79
2023/08/29 05:31:38;;;;;;;7.70;6.78;;;12.50;89.00;;;;;;5053371;28;20036;-78
2023/08/29 05:34:04;;;;;;;7.50;6.80;;;12.60;88.90;;;;;;5053446;28;20479;-78
2023/08/29 05:36:29;;;;;;;7.85;7.15;;;12.70;89.00;;;;;;5053123;28;20040;-78
2023/08/29 05:38:56;;;;;;;10.07;7.72;;;12.80;89.00;;;;;;5053115;28;20017;-79
2023/08/29 05:41:21;;;;;;;8.35;7.55;;;12.80;89.00;;;;;;5053333;28;20083;-78
2023/08/29 05:43:47;;;;;;;10.50;9.60;;;12.90;89.10;;;;;;5053234;28;20016;-78
2023/08/29 05:46:12;;;;;;;12.93;11.45;;;13.00;89.00;;;;;;5053008;28;20506;-79
2023/08/29 05:48:38;;;;;;;11.50;10.43;;;12.80;89.70;;;;;;5052953;28;20082;-76
2023/08/29 05:51:04;;;;;;;11.90;10.68;;;12.80;89.80;;;;;;5051684;28;20117;-78
2023/08/29 05:53:29;;;;;;;12.15;10.85;;;12.80;88.90;;;;;;5051535;28;20024;-78
2023/08/29 05:55:55;;;;;;;9.65;8.77;;;12.80;89.30;;;;;;5052789;28;20021;-77
2023/08/29 05:58:24;;;;;;;9.10;8.30;;;12.70;89.20;;;;;;5052895;28;20024;-77
2023/08/29 06:00:51;;;;;;;8.07;6.55;;;12.70;89.00;;;;;;5053013;28;20018;-78
2023/08/29 06:03:16;;;;;;;7.82;6.07;;;12.70;88.10;;;;;;5052823;28;20494;-78
2023/08/29 06:05:42;;;;;;;8.35;6.22;;;12.70;87.50;;;;;;5052707;28;20021;-77
2023/08/29 06:08:08;;;;;;;9.35;6.63;;;12.70;87.50;;;;;;5052562;28;20087;-78
2023/08/29 06:10:34;;;;;;;8.75;7.20;;;12.70;87.60;;;;;;5052628;28;20021;-78
2023/08/29 06:12:59;;;;;;;9.70;8.70;;;12.60;88.30;;;;;;5052771;28;20043;-78
2023/08/29 06:15:25;;;;;;;9.23;8.30;;;12.60;88.70;;;;;;5052553;28;20108;-78
2023/08/29 06:17:51;;;;;;;7.88;7.07;;;12.60;89.30;;;;;;5052627;28;20493;-79
2023/08/29 06:20:17;;;;;;;10.73;7.63;;;12.60;89.50;;;;;;5052653;28;20036;-78
2023/08/29 06:22:42;;;;;;;16.77;15.00;;;12.60;89.70;;;;;;5052773;28;20103;-79
2023/08/29 06:25:09;;;;;;;25.55;22.88;;;12.70;89.90;;;;;;5052913;28;20456;-79
2023/08/29 06:27:36;;;;;;;22.45;20.15;;;12.70;89.90;;;;;;5052428;28;20029;-79
2023/08/29 06:30:02;;;;;;;19.33;17.52;;;12.70;89.70;;;;;;5052669;28;20060;-79
2023/08/29 06:32:29;;;;;;;17.17;15.57;;;12.70;90.30;;;;;;5054509;28;20543;-78
2023/08/29 06:34:55;;;;;;;15.07;13.68;;;12.70;90.10;;;;;;5056802;28;20387;-78
2023/08/29 06:37:20;;;;;;;16.25;14.65;;;12.80;90.00;;;;;;5056744;28;20036;-77
2023/08/29 06:39:46;;;;;;;14.70;13.20;;;13.00;89.80;;;;;;5055250;28;20493;-79
2023/08/29 06:42:11;;;;;;;13.25;12.05;;;13.10;89.00;;;;;;5056428;28;20024;-78
2023/08/29 06:44:37;;;;;;;15.85;14.45;;;13.10;89.40;;;;;;5056714;28;20580;-78
2023/08/29 06:47:03;;;;;;;16.95;15.35;;;13.10;89.20;;;;;;5056683;28;20041;-78
2023/08/29 06:49:28;;;;;;;12.98;11.77;;;13.20;89.10;;;;;;5055316;28;20025;-78
2023/08/29 06:51:54;;;;;;;15.32;13.82;;;13.30;89.20;;;;;;5056348;28;20025;-79
2023/08/29 06:54:19;;;;;;;17.23;15.60;;;13.40;89.20;;;;;;5055055;28;20017;-78
2023/08/29 06:56:45;;;;;;;16.05;14.55;;;13.40;88.80;;;;;;5055294;28;20028;-78
2023/08/29 06:59:11;;;;;;;14.40;13.10;;;13.40;88.40;;;;;;5056605;28;20047;-77
2023/08/29 07:01:37;;;;;;;17.45;15.65;;;13.50;88.60;;;;;;5056858;28;20513;-77
2023/08/29 07:04:04;;;;;;;14.35;12.98;;;13.50;89.20;;;;;;5061465;28;20025;-78
2023/08/29 07:06:30;;;;;;;15.35;13.95;;;13.60;89.30;;;;;;5056150;28;20033;-79
2023/08/29 07:08:55;;;;;;;14.82;13.43;;;13.60;89.20;;;;;;5057040;28;20021;-79
2023/08/29 07:11:21;;;;;;;17.50;16.00;;;13.60;88.60;;;;;;5056928;28;20497;-77
2023/08/29 07:13:46;;;;;;;17.98;16.20;;;13.70;88.10;;;;;;5057248;28;20021;-77
2023/08/29 07:16:12;;;;;;;17.45;15.75;;;13.60;87.50;;;;;;5056307;28;20055;-76
2023/08/29 07:18:37;;;;;;;17.55;15.98;;;13.60;86.90;;;;;;5055923;28;20033;-78
2023/08/29 07:21:03;;;;;;;18.40;16.67;;;13.70;87.10;;;;;;5055860;28;20495;-78
2023/08/29 07:23:29;;;;;;;16.70;15.13;;;13.70;86.90;;;;;;5055640;28;20079;-77
2023/08/29 07:25:55;;;;;;;21.05;17.13;;;13.70;87.00;;;;;;5054424;28;20056;-77
2023/08/29 07:28:20;;;;;;;18.70;16.75;;;13.80;87.40;;;;;;5055550;28;20491;-77
2023/08/29 07:30:48;;;;;;;17.23;15.63;;;13.70;86.80;;;;;;5055690;28;20025;-76
2023/08/29 07:33:14;;;;;;;18.17;16.40;;;13.70;87.20;;;;;;5055617;28;20475;-76
2023/08/29 07:35:41;;;;;;;21.33;17.55;;;13.80;87.10;;;;;;5055477;28;20055;-77
2023/08/29 07:38:07;;;;;;;16.02;14.43;;;13.80;87.70;;;;;;5055599;28;20036;-78
2023/08/29 07:40:33;;;;;;;17.60;15.85;;;13.90;87.30;;;;;;5054170;28;20079;-77
2023/08/29 07:43:04;;;;;;;15.90;14.20;;;14.00;86.40;;;;;;5055360;28;20082;-78
2023/08/29 07:45:31;;;;;;;15.15;13.77;;;14.00;86.00;;;;;;5055575;28;20020;-79
2023/08/29 07:47:56;;;;;;;20.38;14.70;;;14.10;85.90;;;;;;5055354;28;20116;-78
2023/08/29 07:50:22;;;;;;;18.75;14.25;;;14.30;89.10;;;;;;5055116;28;20159;-75
2023/08/29 07:52:47;;;;;;;14.88;13.52;;;14.40;88.30;;;;;;5055381;28;20025;-76
2023/08/29 07:55:13;;;;;;;15.40;13.77;;;14.60;86.50;;;;;;5054248;28;20036;-74
2023/08/29 07:57:38;;;;;;;16.13;14.30;;;14.70;85.10;;;;;;5055184;28;20029;-76
2023/08/29 08:00:08;;;;;;;14.63;13.20;;;14.60;84.30;;;;;;5054839;28;20029;-76
2023/08/29 08:02:38;;;;;;;15.27;11.02;;;14.60;85.40;;;;;;5057666;28;20014;-76
2023/08/29 08:05:06;;;;;;;19.08;13.02;;;14.70;85.20;;;;;;5056024;28;20021;-77
2023/08/29 08:07:31;;;;;;;14.25;11.18;;;14.80;85.40;;;;;;5055430;28;20123;-76
2023/08/29 08:09:57;;;;;;;12.10;10.90;;;14.90;84.60;;;;;;5054916;28;20479;-76
2023/08/29 08:12:23;;;;;;;12.27;10.65;;;15.00;83.70;;;;;;5053547;28;20029;-79
2023/08/29 08:14:51;;;;;;;9.95;8.95;;;15.10;83.30;;;;;;5054923;28;20016;-77
2023/08/29 08:17:17;;;;;;;11.68;10.63;;;15.20;83.60;;;;;;5054695;28;20025;-77
2023/08/29 08:19:42;;;;;;;11.80;10.60;;;15.00;83.20;;;;;;5053041;28;20052;-77
2023/08/29 08:22:09;;;;;;;9.35;8.55;;;15.10;83.40;;;;;;5054701;28;20079;-76
2023/08/29 08:24:34;;;;;;;9.75;8.85;;;15.20;83.10;;;;;;5053518;28;20020;-76
2023/08/29 08:27:00;;;;;;;8.50;7.70;;;15.30;82.20;;;;;;5054483;28;20471;-76
2023/08/29 08:29:25;;;;;;;8.93;8.18;;;15.40;81.30;;;;;;5054710;28;20045;-76
2023/08/29 08:31:51;;;;;;;7.43;6.57;;;15.60;81.30;;;;;;5054494;28;20040;-77
2023/08/29 08:34:16;;;;;;;8.73;7.65;;;15.60;80.50;;;;;;5054518;28;20479;-77
2023/08/29 08:36:42;;;;;;;12.00;9.40;;;15.70;80.60;;;;;;5052802;28;20111;-76
2023/08/29 08:39:08;;;;;;;6.88;6.15;;;15.70;80.30;;;;;;5053066;28;20122;-76
2023/08/29 08:41:33;;;;;;;8.15;7.35;;;15.80;80.20;;;;;;5054108;28;20146;-77
2023/08/29 08:44:03;;;;;;;7.63;6.95;;;15.80;79.70;;;;;;5053999;28;20585;-75
2023/08/29 08:46:30;;;;;;;8.20;7.07;;;15.80;79.60;;;;;;5053846;28;20033;-75
2023/08/29 08:48:56;;;;;;;8.15;7.10;;;15.80;79.00;;;;;;5052924;28;20525;-76
2023/08/29 08:51:23;;;;;;;8.30;7.43;;;15.90;79.00;;;;;;5053935;28;20471;-76
2023/08/29 08:53:50;;;;;;;12.63;11.07;;;16.00;79.00;;;;;;5053963;28;20364;-76
2023/08/29 08:56:16;;;;;;;11.18;10.10;;;15.90;79.20;;;;;;5053512;28;20033;-76
2023/08/29 08:58:42;;;;;;;11.55;10.55;;;15.60;80.20;;;;;;5054019;28;20021;-76
2023/08/29 09:01:07;;;;;;;10.15;9.20;;;15.40;80.60;;;;;;5054005;28;20056;-75
2023/08/29 09:03:34;;;;;;;12.93;11.65;;;15.40;81.10;;;;;;5053413;28;20021;-75
2023/08/29 09:06:00;;;;;;;10.90;9.90;;;15.20;82.70;;;;;;5053887;28;20476;-78
2023/08/29 09:08:28;;;;;;;10.50;9.60;;;15.30;82.70;;;;;;5054127;28;20078;-80
2023/08/29 09:10:53;;;;;;;10.63;9.63;;;15.40;82.80;;;;;;5053715;28;20025;-81
2023/08/29 09:13:20;;;;;;;11.77;10.68;;;15.30;82.80;;;;;;5053782;28;20033;-81
2023/08/29 09:15:46;;;;;;;11.80;10.75;;;15.20;82.60;;;;;;5054104;28;20518;-79
2023/08/29 09:18:13;;;;;;;11.38;10.32;;;15.30;83.20;;;;;;5052958;28;20029;-77
2023/08/29 09:20:43;;;;;;;11.35;10.40;;;15.10;83.80;;;;;;5053585;28;20009;-80
2023/08/29 09:23:25;;;;;;;9.80;9.00;;;14.90;83.60;;;;;;5054528;28;20021;-75
2023/08/29 09:25:58;;;;;;;10.50;9.60;;;14.80;82.60;;;;;;5051828;28;20534;-80
2023/08/29 09:28:30;;;;;;;9.35;8.40;;;14.70;83.40;;;;;;5050743;28;20055;-77
2023/08/29 09:31:05;;;;;;;9.80;8.80;;;14.80;83.50;;;;;;5051976;28;20047;-77
2023/08/29 09:33:30;;;;;;;9.18;8.30;;;14.90;82.30;;;;;;5050303;28;20441;-77
2023/08/29 09:35:56;;;;;;;8.93;8.13;;;15.00;81.60;;;;;;5052844;28;20482;-77
2023/08/29 09:38:22;;;;;;;11.63;10.43;;;15.10;82.60;;;;;;5052828;28;20028;-79
2023/08/29 09:40:48;;;;;;;10.93;9.50;;;15.20;83.40;;;;;;5052765;28;20095;-77
2023/08/29 09:43:15;;;;;;;9.73;8.82;;;15.30;83.60;;;;;;5052841;28;20102;-77
2023/08/29 09:45:41;;;;;;;11.18;9.32;;;15.40;84.00;;;;;;5051424;28;20167;-78
2023/08/29 09:48:08;;;;;;;9.93;8.93;;;15.50;83.40;;;;;;5052718;28;20391;-79
2023/08/29 09:50:35;;;;;;;9.88;8.52;;;15.40;82.80;;;;;;5051205;28;20017;-77
2023/08/29 09:53:01;;;;;;;11.43;8.25;;;15.40;81.90;;;;;;5052843;28;20036;-78
2023/08/29 09:55:33;;;;;;;9.15;8.35;;;15.20;80.60;;;;;;5051717;28;20047;-76
2023/08/29 09:58:00;;;;;;;8.75;7.55;;;15.00;81.80;;;;;;5053064;28;20021;-77
2023/08/29 10:00:26;;;;;;;8.75;7.85;;;15.00;82.80;;;;;;5052662;28;20422;-75
2023/08/29 10:02:56;;;;;;;11.95;9.40;;;14.90;82.60;;;;;;5052701;28;20063;-77
2023/08/29 10:05:26;;;;;;;8.23;7.57;;;15.00;82.50;;;;;;5052332;28;20094;-77
2023/08/29 10:07:57;;;;;;;9.60;7.55;;;15.10;82.70;;;;;;5050991;28;20039;-75
2023/08/29 10:10:24;;;;;;;9.27;8.38;;;15.30;83.10;;;;;;5052344;28;20020;-75
2023/08/29 10:12:50;;;;;;;10.70;9.63;;;15.40;82.40;;;;;;5052104;28;20078;-77
2023/08/29 10:15:18;;;;;;;9.80;8.80;;;15.40;83.60;;;;;;5052395;28;20100;-76
2023/08/29 10:17:44;;;;;;;10.55;9.55;;;15.30;83.30;;;;;;5054344;28;20479;-77
2023/08/29 10:20:12;;;;;;;10.30;9.20;;;15.20;83.30;;;;;;5052028;28;20032;-75
2023/08/29 10:22:40;;;;;;;9.23;8.27;;;15.20;82.50;;;;;;5052405;28;20013;-79
2023/08/29 10:25:06;;;;;;;9.23;8.40;;;15.30;82.90;;;;;;5052150;28;20021;-78
2023/08/29 10:27:34;;;;;;;10.43;9.15;;;15.50;82.60;;;;;;5052163;28;20132;-77
2023/08/29 10:30:03;;;;;;;8.98;8.18;;;15.60;82.20;;;;;;5052445;28;20104;-76
2023/08/29 10:32:30;;;;;;;9.32;8.43;;;15.70;81.80;;;;;;5051334;28;20040;-77
2023/08/29 10:34:55;;;;;;;7.65;6.95;;;15.70;81.80;;;;;;5052760;28;20017;-80
2023/08/29 10:37:22;;;;;;;9.00;7.57;;;15.60;80.20;;;;;;5053073;28;20550;-79
2023/08/29 10:39:50;;;;;;;8.45;6.65;;;15.60;80.50;;;;;;5053112;28;20025;-80
2023/08/29 10:42:16;;;;;;;8.63;7.82;;;15.50;80.70;;;;;;5052786;28;20024;-79
2023/08/29 10:44:46;;;;;;;8.93;8.15;;;15.40;81.80;;;;;;5052659;28;20044;-75
2023/08/29 10:47:30;;;;;;;9.70;8.73;;;15.30;81.90;;;;;;5052276;28;20116;-76
2023/08/29 10:49:58;;;;;;;9.18;8.32;;;15.20;82.90;;;;;;5052494;28;20017;-77
2023/08/29 10:52:33;;;;;;;9.13;8.32;;;15.10;83.70;;;;;;5052723;28;20029;-77
2023/08/29 10:55:03;;;;;;;8.45;7.35;;;15.00;83.70;;;;;;5051200;28;20057;-76
2023/08/29 10:57:30;;;;;;;9.88;8.98;;;15.10;84.30;;;;;;5053478;28;20025;-76
2023/08/29 10:59:56;;;;;;;9.98;9.02;;;15.10;84.70;;;;;;5052064;28;20029;-74
2023/08/29 11:02:29;;;;;;;9.52;8.60;;;15.10;84.60;;;;;;5055916;28;20021;-77
2023/08/29 11:05:03;;;;;;;9.93;8.57;;;15.20;83.10;;;;;;5052680;28;20021;-74
2023/08/29 11:07:30;;;;;;;9.57;8.68;;;15.30;83.10;;;;;;5053494;28;20041;-76
2023/08/29 11:10:15;;;;;;;7.47;6.85;;;15.30;83.70;;;;;;5051944;28;20376;-75
2023/08/29 11:13:10;;;;;;;8.65;7.85;;;15.30;83.40;;;;;;5052181;28;20036;-75
2023/08/29 11:15:48;;;;;;;10.23;8.52;;;15.40;83.30;;;;;;5051052;28;20386;-76
2023/08/29 11:18:34;;;;;;;9.75;8.75;;;15.40;81.50;;;;;;5053424;28;20086;-76
2023/08/29 11:21:09;;;;;;;8.52;7.72;;;15.40;80.70;;;;;;5055472;28;20100;-78
2023/08/29 11:23:40;;;;;;;7.97;7.07;;;15.20;81.00;;;;;;5055577;28;20021;-76
2023/08/29 11:26:06;;;;;;;9.82;7.93;;;15.30;82.00;;;;;;5052965;28;20044;-76
2023/08/29 11:28:33;;;;;;;8.55;7.80;;;15.30;82.40;;;;;;5054906;28;20052;-75
2023/08/29 11:30:59;;;;;;;7.30;6.72;;;15.30;82.40;;;;;;5055058;28;20021;-76
2023/08/29 11:33:33;;;;;;;7.10;6.40;;;15.40;81.70;;;;;;5055293;28;20040;-76
2023/08/29 11:36:00;;;;;;;7.72;6.78;;;15.50;81.50;;;;;;5054918;28;20540;-77
2023/08/29 11:38:30;;;;;;;7.40;6.70;;;15.70;81.30;;;;;;5055256;28;20055;-77
2023/08/29 11:41:00;;;;;;;9.00;8.10;;;15.80;79.10;;;;;;5055468;28;20017;-75
2023/08/29 11:43:27;;;;;;;7.47;6.10;;;15.80;79.50;;;;;;5055339;28;20075;-77
2023/08/29 11:45:57;;;;;;;8.23;7.35;;;15.80;79.60;;;;;;5055055;28;20379;-76
2023/08/29 11:48:27;;;;;;;7.90;6.82;;;15.80;78.50;;;;;;5053886;28;20021;-78
2023/08/29 11:50:59;;;;;;;7.70;7.00;;;15.70;79.80;;;;;;5054825;28;20027;-75
2023/08/29 11:53:33;;;;;;;6.70;5.95;;;15.70;79.20;;;;;;5054958;28;20120;-78
2023/08/29 11:56:01;;;;;;;5.47;5.00;;;15.70;79.50;;;;;;5055049;28;20025;-77
2023/08/29 11:58:28;;;;;;;5.05;4.55;;;15.70;79.70;;;;;;5055096;28;20772;-82
2023/08/29 12:00:54;;;;;;;4.47;3.53;;;15.70;79.30;;;;;;5054984;28;20434;-79
2023/08/29 12:03:25;;;;;;;5.32;4.07;;;15.80;78.30;;;;;;5055113;28;20020;-78
2023/08/29 12:05:52;;;;;;;4.55;3.90;;;15.80;77.70;;;;;;5055040;28;20021;-79
2023/08/29 12:08:42;;;;;;;4.43;3.95;;;15.80;77.20;;;;;;5055093;28;20169;-79
2023/08/29 12:11:13;;;;;;;4.80;4.32;;;15.80;77.90;;;;;;5055496;28;20013;-78
2023/08/29 12:13:42;;;;;;;5.03;4.53;;;15.90;78.30;;;;;;5054897;28;20049;-77
2023/08/29 12:16:16;;;;;;;4.38;3.97;;;16.00;78.00;;;;;;5054813;28;20040;-78
2023/08/29 12:18:42;;;;;;;4.38;4.00;;;16.00;77.50;;;;;;5054640;28;20032;-79
2023/08/29 12:21:18;;;;;;;3.50;3.20;;;16.00;77.20;;;;;;5054733;28;20487;-78
2023/08/29 12:23:45;;;;;;;4.43;3.80;;;16.00;76.20;;;;;;5054492;28;20032;-79
2023/08/29 12:26:17;;;;;;;3.45;3.15;;;15.90;76.70;;;;;;5054553;28;20032;-79
2023/08/29 12:28:43;;;;;;;3.72;3.42;;;15.90;76.30;;;;;;5054243;28;20052;-78
2023/08/29 12:31:09;;;;;;;3.97;3.40;;;16.10;77.00;;;;;;5053613;28;20025;-78
2023/08/29 12:33:35;;;;;;;4.38;3.97;;;16.20;77.50;;;;;;5054265;28;20094;-78